Aeroporto :
LOGIN :

Iscrizione | Disclaimer

   EN    FR    IT 

 










Sommario :    VFR   VFR Marginale   IFR   IFR Intensivo   IFR Molto Intensivo
Visibilità : 
Base nubi : 
>= 8 km
>= 3000ft
5 / 8 km
1000 / 3000 ft
1500m / 5 km
500 / 1000 ft
800 / 1500m
200 / 500 ft
< 800m
< 200 ft
Simboli :   Temporali  Nebbia  Neve Forte  Precipitazioni Forti  Vento > 20 kt
SIGMETs :   Varie  Temporali  Ghiacco  Turbolenza  Onda orograficha  Ceneri Vulcaniche






- Altitudine del aeroporto : 74 ft
- Codice IATA : LRH


LFBH - La Rochelle Ile de Ré

ULTIMO METAR :
  • 061730Z AUTO 30014KT CAVOK 15/06 Q1009 TEMPO 32015G25KT BKN030TCU

METARs OBSOLETI :
  • 061700Z AUTO 30014KT 9999 FEW044 OVC130 15/08 Q1009 TEMPO 32015G25KT
  • 061630Z AUTO 31015KT 9999 FEW040 OVC130 16/07 Q1008 TEMPO 32015G25KT
  • 061600Z AUTO 30015KT CAVOK 16/07 Q1009 TEMPO 32015G25KT
  • 061530Z AUTO 29014KT CAVOK 17/07 Q1009 TEMPO 32015G25KT
  • 061500Z AUTO 30015KT CAVOK 16/06 Q1009 TEMPO 32015G25KT

TAF TAF LFBH
Valido dal 06 a 18 ore il 07 a 18 ore UTC


061700Z 0618/0718 30012KT 9999 SCT040
PROB30
TEMPO 0618/0701 32015G25KT -SHRA BKN030TCU
BECMG 0703/0705 36005KT
BECMG 0710/0712 25012KT
PROB30
TEMPO 0712/0715 -SHRA BKN060TCU
ATIS : +33 5 46 00 13 92



MetMap, La meteo Aeronautica in un colpo d'occhio ! - Copyright ORBIFLY Dicembre 2007 - Disclaimer

ORBIFLY MET'MAP TEAM :

Programmazione e sviluppo : Alexandra Zaïnal
Concezione : Baudouin d'Aumeries
Aiuto per la programmazione : Marc-Olivier Méhu
Supporto tecnico e logistico : Manuel Goepfert
Aiuto per la traduzione : Arnaldo La Scala

Contatto : metmap@orbifly.com




FONTI E CREDITI :

   NOAA